createdAt,value
2023-02-19T00:00:55.642Z,101467.66
2023-02-19T00:04:01.645Z,101467.66
2023-02-19T00:07:06.816Z,101479.81
2023-02-19T00:10:10.863Z,101472.00
2023-02-19T00:13:14.965Z,101478.06
2023-02-19T00:16:21.629Z,101472.88
2023-02-19T00:19:25.634Z,101479.78
2023-02-19T00:22:30.811Z,101479.78
2023-02-19T00:25:38.903Z,101479.78
2023-02-19T00:28:42.739Z,101481.50
2023-02-19T00:31:47.762Z,101489.34
2023-02-19T00:34:51.550Z,101486.69
2023-02-19T00:37:56.835Z,101481.50
2023-02-19T00:41:01.109Z,101478.06
2023-02-19T00:44:08.754Z,101478.06
2023-02-19T00:47:12.422Z,101469.38
2023-02-19T00:50:16.635Z,101467.66
2023-02-19T00:53:21.849Z,101476.28
2023-02-19T00:56:25.951Z,101491.88
2023-02-19T00:59:29.709Z,101481.47
2023-02-19T01:02:33.822Z,101486.69
2023-02-19T01:05:37.692Z,101480.63
2023-02-19T01:08:43.339Z,101480.59
2023-02-19T01:11:47.210Z,101476.25
2023-02-19T01:14:51.218Z,101478.00
2023-02-19T01:17:55.010Z,101489.25
2023-02-19T01:20:58.732Z,101477.13
2023-02-19T01:24:04.074Z,101485.78
2023-02-19T01:27:07.940Z,101486.66
2023-02-19T01:30:12.870Z,101486.66
2023-02-19T01:33:16.758Z,101490.09
2023-02-19T01:36:20.904Z,101501.38
2023-02-19T01:39:26.194Z,101503.97
2023-02-19T01:42:29.907Z,101499.63
2023-02-19T01:45:34.888Z,101502.22
2023-02-19T01:48:41.108Z,101501.31
2023-02-19T01:51:50.769Z,101496.13
2023-02-19T01:54:57.555Z,101490.94
2023-02-19T01:58:03.803Z,101485.69
2023-02-19T02:01:10.467Z,101490.88
2023-02-19T02:04:17.280Z,101494.31
2023-02-19T02:07:38.592Z,101496.03
2023-02-19T02:10:45.573Z,101494.31
2023-02-19T02:13:50.453Z,101499.50
2023-02-19T02:17:10.629Z,101499.50
2023-02-19T02:20:37.388Z,101506.38
2023-02-19T02:24:08.007Z,101502.94
2023-02-19T02:27:33.395Z,101509.78
2023-02-19T02:30:46.053Z,101509.78
2023-02-19T02:33:59.171Z,101520.88
2023-02-19T02:37:08.290Z,101520.84
2023-02-19T02:40:14.031Z,101513.91
2023-02-19T02:43:17.845Z,101509.56
2023-02-19T02:46:31.580Z,101514.72
2023-02-19T02:49:57.121Z,101506.94
2023-02-19T02:53:24.566Z,101512.09
2023-02-19T02:56:28.539Z,101510.34
2023-02-19T02:59:38.538Z,101516.28
2023-02-19T03:02:44.214Z,101520.69
2023-02-19T03:05:53.630Z,101521.50
2023-02-19T03:09:06.335Z,101530.06
2023-02-19T03:12:34.063Z,101524.06
2023-02-19T03:16:05.698Z,101532.72
2023-02-19T03:19:20.430Z,101535.28
2023-02-19T03:22:28.564Z,101536.16
2023-02-19T03:25:54.621Z,101536.19
2023-02-19T03:29:18.819Z,101549.97
2023-02-19T03:32:32.327Z,101553.50
2023-02-19T03:35:43.146Z,101561.28
2023-02-19T03:38:53.866Z,101562.94
2023-02-19T03:42:07.983Z,101588.94
2023-02-19T03:45:29.955Z,101584.56
2023-02-19T03:48:37.297Z,101584.63
2023-02-19T03:51:47.181Z,101587.19
2023-02-19T03:55:01.106Z,101594.13
2023-02-19T03:58:15.318Z,101596.72
2023-02-19T04:01:29.485Z,101604.50
2023-02-19T04:04:38.330Z,101608.78
2023-02-19T04:07:48.341Z,101622.63
2023-02-19T04:10:54.616Z,101625.25
2023-02-19T04:14:06.834Z,101631.25
2023-02-19T04:17:20.869Z,101633.88
2023-02-19T04:20:29.922Z,101640.72
2023-02-19T04:23:42.276Z,101653.66
2023-02-19T04:26:47.200Z,101661.47
2023-02-19T04:29:51.079Z,101660.59
2023-02-19T04:32:54.909Z,101669.19
2023-02-19T04:35:58.815Z,101669.31
2023-02-19T04:39:04.037Z,101677.91
2023-02-19T04:42:07.883Z,101671.00
2023-02-19T04:45:11.718Z,101688.25
2023-02-19T04:48:15.907Z,101683.97
2023-02-19T04:51:19.630Z,101690.91
2023-02-19T04:54:25.080Z,101694.28
2023-02-19T04:57:28.879Z,101698.72
2023-02-19T05:00:34.182Z,101703.94
2023-02-19T05:03:38.708Z,101712.53
2023-02-19T05:06:42.518Z,101716.91
2023-02-19T05:09:47.727Z,101721.13
2023-02-19T05:12:52.071Z,101719.44
2023-02-19T05:16:01.541Z,101735.81
2023-02-19T05:19:05.373Z,101737.56
2023-02-19T05:22:09.267Z,101742.75
2023-02-19T05:25:14.505Z,101754.72
2023-02-19T05:28:18.650Z,101750.47
2023-02-19T05:31:23.155Z,101755.69
2023-02-19T05:34:27.157Z,101765.91
2023-02-19T05:37:30.925Z,101779.78
2023-02-19T05:40:36.835Z,101784.00
2023-02-19T05:43:41.493Z,101789.34
2023-02-19T05:46:45.235Z,101799.69
2023-02-19T05:49:49.035Z,101803.91
2023-02-19T05:52:52.859Z,101810.75
2023-02-19T05:55:58.108Z,101817.69
2023-02-19T05:59:06.710Z,101833.22
2023-02-19T06:02:11.703Z,101828.06
2023-02-19T06:05:16.102Z,101833.28
2023-02-19T06:08:19.828Z,101821.13
2023-02-19T06:11:25.973Z,101830.63
2023-02-19T06:14:30.197Z,101835.69
2023-02-19T06:17:34.988Z,101842.56
2023-02-19T06:20:38.722Z,101845.19
2023-02-19T06:23:43.208Z,101854.50
2023-02-19T06:26:48.517Z,101854.50
2023-02-19T06:29:55.557Z,101857.09
2023-02-19T06:32:59.602Z,101864.88
2023-02-19T06:36:05.722Z,101882.94
2023-02-19T06:39:11.043Z,101886.50
2023-02-19T06:42:16.327Z,101890.81
2023-02-19T06:45:23.995Z,101896.94
2023-02-19T06:48:28.582Z,101908.16
2023-02-19T06:51:33.073Z,101915.94
2023-02-19T06:54:36.775Z,101927.94
2023-02-19T06:57:41.936Z,101923.56
2023-02-19T07:00:45.691Z,101928.84
2023-02-19T07:03:49.428Z,101934.00
2023-02-19T07:06:53.214Z,101943.34
2023-02-19T07:09:56.955Z,101959.66
2023-02-19T07:13:02.080Z,101977.81
2023-02-19T07:16:10.642Z,101986.34
2023-02-19T07:19:15.128Z,101991.59
2023-02-19T07:22:18.907Z,101983.88
2023-02-19T07:25:22.566Z,102001.97
2023-02-19T07:28:28.235Z,102012.38
2023-02-19T07:31:32.083Z,102014.34
2023-02-19T07:34:35.999Z,102020.69
2023-02-19T07:37:53.841Z,102025.06
2023-02-19T07:41:15.107Z,102032.88
2023-02-19T07:44:48.331Z,102032.88
2023-02-19T07:47:54.640Z,102046.84
2023-02-19T07:51:01.406Z,102045.13
2023-02-19T07:54:05.526Z,102056.47
2023-02-19T07:57:09.402Z,102053.28
2023-02-19T08:00:16.146Z,102061.84
2023-02-19T08:03:20.104Z,102054.28
2023-02-19T08:06:23.825Z,102050.03
2023-02-19T08:09:27.775Z,102037.13
2023-02-19T08:12:48.973Z,102043.06
2023-02-19T08:16:07.477Z,102050.00
2023-02-19T08:19:18.782Z,102054.22
2023-02-19T08:22:22.543Z,102049.16
2023-02-19T08:25:26.321Z,102055.38
2023-02-19T08:28:31.360Z,102062.31
2023-02-19T08:31:36.804Z,102059.69
2023-02-19T08:34:40.628Z,102070.13
2023-02-19T08:37:44.609Z,102083.28
2023-02-19T08:40:48.480Z,102088.38
2023-02-19T08:43:52.264Z,102097.09
2023-02-19T08:46:57.397Z,102094.50
2023-02-19T08:50:02.380Z,102104.94
2023-02-19T08:53:08.325Z,102098.88
2023-02-19T08:56:15.103Z,102100.09
2023-02-19T08:59:20.427Z,102100.81
2023-02-19T09:02:26.638Z,102105.31
2023-02-19T09:05:30.577Z,102110.50
2023-02-19T09:08:34.511Z,102114.00
2023-02-19T09:11:40.843Z,102132.31
2023-02-19T09:14:44.674Z,102140.94
2023-02-19T09:17:53.661Z,102133.22
2023-02-19T09:21:02.635Z,102141.19
2023-02-19T09:24:10.276Z,102145.47
2023-02-19T09:27:18.140Z,102163.59
2023-02-19T09:30:36.169Z,102164.94
2023-02-19T09:34:03.884Z,102173.63
2023-02-19T09:37:08.675Z,102183.97
2023-02-19T09:40:13.358Z,102195.31
2023-02-19T09:43:21.785Z,102198.72
2023-02-19T09:46:33.944Z,102212.78
2023-02-19T09:49:43.688Z,102214.78
2023-02-19T09:52:54.343Z,102216.50
2023-02-19T09:55:58.604Z,102215.66
2023-02-19T09:59:02.836Z,102229.69
2023-02-19T10:02:14.901Z,102231.63
2023-02-19T10:05:20.798Z,102236.00
2023-02-19T10:08:24.653Z,102230.88
2023-02-19T10:11:28.565Z,102243.16
2023-02-19T10:14:40.684Z,102240.66
2023-02-19T10:17:44.651Z,102248.25
2023-02-19T10:20:56.819Z,102251.00
2023-02-19T10:24:11.905Z,102244.91
2023-02-19T10:27:17.292Z,102245.75
2023-02-19T10:30:25.351Z,102237.00
2023-02-19T10:33:29.218Z,102227.56
2023-02-19T10:36:38.680Z,102222.44
2023-02-19T10:39:47.058Z,102222.34
2023-02-19T10:42:55.114Z,102236.22
2023-02-19T10:46:03.243Z,102228.75
2023-02-19T10:49:23.164Z,102245.19
2023-02-19T10:52:37.956Z,102260.16
2023-02-19T10:55:42.174Z,102266.06
2023-02-19T10:58:47.390Z,102278.97
2023-02-19T11:02:00.680Z,102286.88
2023-02-19T11:05:17.048Z,102286.13
2023-02-19T11:08:25.769Z,102285.41
2023-02-19T11:11:37.061Z,102285.47
2023-02-19T11:14:45.626Z,102281.97
2023-02-19T11:17:58.892Z,102293.34
2023-02-19T11:21:06.544Z,102288.03
2023-02-19T11:24:40.620Z,102288.25
2023-02-19T11:27:58.204Z,102279.50
2023-02-19T11:31:24.930Z,102278.75
2023-02-19T11:34:31.244Z,102272.69
2023-02-19T11:37:35.014Z,102263.03
2023-02-19T11:40:46.822Z,102276.03
2023-02-19T11:44:15.952Z,102287.13
2023-02-19T11:48:17.839Z,102277.50
2023-02-19T11:51:39.811Z,102269.72
2023-02-19T11:54:54.134Z,102269.94
2023-02-19T11:58:37.011Z,102259.56
2023-02-19T12:02:26.306Z,102272.47
2023-02-19T12:05:48.478Z,102268.19
2023-02-19T12:09:24.060Z,102269.09
2023-02-19T12:12:51.726Z,102280.50
2023-02-19T12:16:21.007Z,102287.50
2023-02-19T12:20:04.415Z,102278.81
2023-02-19T12:23:40.295Z,102291.00
2023-02-19T12:26:57.997Z,102285.84
2023-02-19T12:30:26.556Z,102286.59
2023-02-19T12:34:09.089Z,102295.38
2023-02-19T12:37:34.356Z,102291.91
2023-02-19T12:40:54.561Z,102287.56
2023-02-19T12:44:05.687Z,102296.22
2023-02-19T12:47:18.342Z,102288.38
2023-02-19T12:50:28.836Z,102288.41
2023-02-19T12:53:49.503Z,102288.44
2023-02-19T12:57:02.133Z,102285.00
2023-02-19T13:00:28.534Z,102294.56
2023-02-19T13:03:41.441Z,102297.25
2023-02-19T13:06:55.092Z,102288.53
2023-02-19T13:10:15.283Z,102276.38
2023-02-19T13:13:27.828Z,102285.97
2023-02-19T13:16:36.156Z,102272.88
2023-02-19T13:19:40.587Z,102269.38
2023-02-19T13:23:17.218Z,102271.97
2023-02-19T13:26:46.820Z,102269.41
2023-02-19T13:30:11.932Z,102275.50
2023-02-19T13:33:44.734Z,102280.72
2023-02-19T13:36:50.299Z,102288.53
2023-02-19T13:39:58.847Z,102288.50
2023-02-19T13:43:06.273Z,102292.84
2023-02-19T13:46:15.686Z,102291.06
2023-02-19T13:49:50.096Z,102289.34
2023-02-19T13:52:55.188Z,102292.81
2023-02-19T13:56:00.671Z,102291.97
2023-02-19T13:59:36.338Z,102307.63
2023-02-19T14:02:40.668Z,102307.63
2023-02-19T14:06:08.114Z,102312.84
2023-02-19T14:09:48.232Z,102313.75
2023-02-19T14:12:54.406Z,102313.75
2023-02-19T14:15:58.453Z,102311.13
2023-02-19T14:19:03.575Z,102322.38
2023-02-19T14:23:03.403Z,102323.28
2023-02-19T14:26:11.225Z,102323.28
2023-02-19T14:29:20.822Z,102312.81
2023-02-19T14:32:26.912Z,102307.59
2023-02-19T14:35:39.408Z,102298.00
2023-02-19T14:38:51.689Z,102281.44
2023-02-19T14:42:01.909Z,102284.03
2023-02-19T14:45:10.384Z,102277.91
2023-02-19T14:48:24.427Z,102269.22
2023-02-19T14:51:38.152Z,102260.50
2023-02-19T14:54:49.888Z,102251.75
2023-02-19T14:57:58.373Z,102251.81
2023-02-19T15:01:05.589Z,102254.44
2023-02-19T15:04:25.225Z,102248.31
2023-02-19T15:07:34.172Z,102257.88
2023-02-19T15:10:40.488Z,102256.13
2023-02-19T15:13:46.205Z,102256.13
2023-02-19T15:16:59.774Z,102257.81
2023-02-19T15:20:13.449Z,102267.41
2023-02-19T15:23:25.721Z,102263.03
2023-02-19T15:26:37.294Z,102267.41
2023-02-19T15:29:48.374Z,102264.78
2023-02-19T15:33:00.460Z,102262.19
2023-02-19T15:36:09.411Z,102267.47
2023-02-19T15:39:23.968Z,102275.34
2023-02-19T15:42:32.498Z,102273.53
2023-02-19T15:45:49.402Z,102283.94
2023-02-19T15:49:03.426Z,102282.13
2023-02-19T15:52:14.412Z,102275.16
2023-02-19T15:55:32.466Z,102282.97
2023-02-19T15:58:43.970Z,102283.81
2023-02-19T16:01:48.169Z,102289.84
2023-02-19T16:04:54.733Z,102294.19
2023-02-19T16:08:21.456Z,102303.69
2023-02-19T16:11:35.841Z,102299.34
2023-02-19T16:14:39.941Z,102301.91
2023-02-19T16:17:46.367Z,102288.88
2023-02-19T16:20:51.966Z,102293.19
2023-02-19T16:24:05.372Z,102295.19
2023-02-19T16:27:10.825Z,102296.69
2023-02-19T16:30:29.841Z,102301.81
2023-02-19T16:33:44.048Z,102320.00
2023-02-19T16:36:50.091Z,102320.00
2023-02-19T16:40:21.997Z,102325.22
2023-02-19T16:43:32.293Z,102325.16
2023-02-19T16:46:36.420Z,102327.75
2023-02-19T16:49:42.793Z,102330.31
2023-02-19T16:52:58.147Z,102332.16
2023-02-19T16:56:02.712Z,102333.88
2023-02-19T16:59:08.159Z,102328.59
2023-02-19T17:02:22.309Z,102325.16
2023-02-19T17:05:31.056Z,102328.56
2023-02-19T17:12:57.881Z,102330.03
2023-02-19T17:16:10.417Z,102336.03
2023-02-19T17:19:18.649Z,102332.44
2023-02-19T17:22:23.747Z,102324.53
2023-02-19T17:25:30.469Z,102333.97
2023-02-19T17:28:34.982Z,102340.81
2023-02-19T17:31:39.245Z,102342.50
2023-02-19T17:34:43.512Z,102343.31
2023-02-19T17:37:48.036Z,102342.34
2023-02-19T17:40:54.804Z,102349.22
2023-02-19T17:43:59.416Z,102355.28
2023-02-19T17:47:03.900Z,102354.38
2023-02-19T17:50:14.943Z,102346.50
2023-02-19T17:53:19.640Z,102363.88
2023-02-19T17:56:29.086Z,102367.28
2023-02-19T17:59:37.546Z,102373.31
2023-02-19T18:02:42.459Z,102377.63
2023-02-19T18:05:46.875Z,102375.03
2023-02-19T18:08:52.853Z,102377.72
2023-02-19T18:11:58.639Z,102381.16
2023-02-19T18:15:03.584Z,102377.78
2023-02-19T18:18:10.076Z,102376.88
2023-02-19T18:21:15.566Z,102380.38
2023-02-19T18:24:20.148Z,102378.63
2023-02-19T18:27:26.251Z,102382.97
2023-02-19T18:30:31.643Z,102377.75
2023-02-19T18:33:36.527Z,102376.00
2023-02-19T18:36:40.569Z,102368.09
2023-02-19T18:39:46.358Z,102361.16
2023-02-19T18:42:55.472Z,102361.16
2023-02-19T18:46:00.013Z,102359.47
2023-02-19T18:49:04.732Z,102346.41
2023-02-19T18:52:08.811Z,102348.19
2023-02-19T18:55:13.314Z,102343.91
2023-02-19T18:58:20.297Z,102348.19
2023-02-19T19:01:24.635Z,102353.41
2023-02-19T19:04:28.887Z,102350.00
2023-02-19T19:07:33.253Z,102350.88
2023-02-19T19:10:37.792Z,102355.16
2023-02-19T19:13:43.340Z,102362.94
2023-02-19T19:16:48.385Z,102363.81
2023-02-19T19:19:52.876Z,102357.75
2023-02-19T19:22:56.793Z,102350.81
2023-02-19T19:26:00.650Z,102345.66
2023-02-19T19:29:05.926Z,102351.69
2023-02-19T19:32:10.847Z,102349.88
2023-02-19T19:35:20.515Z,102349.81
2023-02-19T19:38:24.305Z,102352.41
2023-02-19T19:41:28.191Z,102353.25
2023-02-19T19:44:33.534Z,102344.50
2023-02-19T19:47:37.376Z,102355.75
2023-02-19T19:50:41.196Z,102351.41
2023-02-19T19:53:48.435Z,102344.47
2023-02-19T19:56:52.344Z,102342.75
2023-02-19T19:59:57.871Z,102340.13
2023-02-19T20:03:01.955Z,102339.31
2023-02-19T20:06:06.655Z,102329.72
2023-02-19T20:09:10.606Z,102320.16
2023-02-19T20:12:14.394Z,102327.13
2023-02-19T20:15:30.290Z,102327.13
2023-02-19T20:18:35.933Z,102332.31
2023-02-19T20:21:39.861Z,102321.13
2023-02-19T20:24:43.628Z,102314.19
2023-02-19T20:27:49.733Z,102310.72
2023-02-19T20:30:55.129Z,102323.72
2023-02-19T20:33:59.000Z,102316.75
2023-02-19T20:37:02.866Z,102323.75
2023-02-19T20:40:09.258Z,102328.94
2023-02-19T20:43:12.976Z,102331.59
2023-02-19T20:46:19.398Z,102319.47
2023-02-19T20:49:26.038Z,102315.97
2023-02-19T20:52:30.512Z,102327.22
2023-02-19T20:55:35.156Z,102322.97
2023-02-19T20:58:39.829Z,102318.56
2023-02-19T21:01:45.626Z,102322.88
2023-02-19T21:04:49.558Z,102326.31
2023-02-19T21:07:53.308Z,102332.31
2023-02-19T21:10:57.157Z,102330.56
2023-02-19T21:14:01.132Z,102330.50
2023-02-19T21:17:06.784Z,102330.44
2023-02-19T21:20:11.673Z,102333.84
2023-02-19T21:23:15.521Z,102325.91
2023-02-19T21:26:19.414Z,102326.72
2023-02-19T21:29:24.079Z,102325.84
2023-02-19T21:32:29.405Z,102315.53
2023-02-19T21:35:33.597Z,102312.13
2023-02-19T21:38:37.412Z,102300.09
2023-02-19T21:41:41.312Z,102287.06
2023-02-19T21:44:45.167Z,102281.94
2023-02-19T21:47:52.223Z,102273.16
2023-02-19T21:50:56.022Z,102264.56
2023-02-19T21:54:00.035Z,102262.88
2023-02-19T21:57:05.181Z,102255.97
2023-02-19T22:00:10.799Z,102249.00
2023-02-19T22:03:18.149Z,102244.75
2023-02-19T22:06:27.446Z,102263.78
2023-02-19T22:09:32.432Z,102267.34
2023-02-19T22:12:36.452Z,102274.31
2023-02-19T22:15:40.319Z,102281.22
2023-02-19T22:18:49.595Z,102271.75
2023-02-19T22:21:53.304Z,102270.00
2023-02-19T22:24:57.329Z,102276.09
2023-02-19T22:28:01.000Z,102285.69
2023-02-19T22:31:04.796Z,102291.72
2023-02-19T22:34:10.507Z,102279.56
2023-02-19T22:37:14.341Z,102281.31
2023-02-19T22:40:18.286Z,102280.47
2023-02-19T22:43:22.125Z,102301.34
2023-02-19T22:46:28.447Z,102284.00
2023-02-19T22:49:33.686Z,102277.94
2023-02-19T22:52:37.415Z,102276.22
2023-02-19T22:55:41.163Z,102277.13
2023-02-19T22:58:46.099Z,102266.75
2023-02-19T23:01:50.996Z,102262.41
2023-02-19T23:04:56.180Z,102278.06
2023-02-19T23:07:59.890Z,102276.34
2023-02-19T23:11:03.786Z,102284.16
2023-02-19T23:14:08.461Z,102279.00
2023-02-19T23:17:13.505Z,102277.28
2023-02-19T23:20:18.924Z,102267.69
2023-02-19T23:23:22.671Z,102262.50
2023-02-19T23:26:26.776Z,102263.34
2023-02-19T23:29:31.780Z,102265.06
2023-02-19T23:32:35.577Z,102245.97
2023-02-19T23:35:40.834Z,102239.06
2023-02-19T23:38:46.968Z,102233.06
2023-02-19T23:41:53.343Z,102230.44
2023-02-19T23:44:57.137Z,102218.28
2023-02-19T23:48:01.023Z,102215.69
2023-02-19T23:51:06.953Z,102212.19
2023-02-19T23:54:11.304Z,102209.59
2023-02-19T23:57:15.161Z,102188.84
